Aqua Ramon, Colorado
Current Conditions -  °F | °C
As of 5:30 PM on Saturday 25 Oct 2014 (Local Time) from KRCV Reporting Station
Clear Clear  
Wind Chill: 67°   Ceiling: Unl
Heat Index: 67°   Visibility: 10mi
Dew Point: 23°   Wind: 15mph
Humidity: 19%   Direction: 220°SW
Pressure: 30.28"   Gusts: 23mph
Location:  37.6359°N, 106.449°W
Report Text: KRCV 252330Z AUTO 22013G20KT 10SM CLR 19/M05 A3028 RMK AO2 T01931051
Loading
Personal Weather Stations






























Interactive Weather Map
Tropical Storm Tracking
New forecast layout! Learn more

10-Day Weather Forecast

Advertisements
Track Severe Weather on mobile